createdAt,value
2023-03-02T00:01:33.327Z,76.68
2023-03-02T00:04:03.068Z,78.57
2023-03-02T00:06:31.704Z,71.45
2023-03-02T00:09:00.825Z,78.57
2023-03-02T00:11:30.118Z,74.00
2023-03-02T00:13:58.274Z,71.15
2023-03-02T00:16:25.867Z,64.15
2023-03-02T00:18:53.810Z,64.35
2023-03-02T00:21:21.104Z,64.03
2023-03-02T00:23:48.503Z,66.25
2023-03-02T00:26:15.648Z,54.40
2023-03-02T00:28:43.279Z,56.75
2023-03-02T00:31:11.232Z,60.78
2023-03-02T00:33:38.690Z,63.40
2023-03-02T00:36:06.267Z,52.58
2023-03-02T00:38:33.883Z,61.17
2023-03-02T00:41:01.013Z,55.92
2023-03-02T00:43:29.275Z,59.00
2023-03-02T00:45:56.445Z,49.60
2023-03-02T00:48:24.022Z,59.38
2023-03-02T00:50:51.146Z,54.15
2023-03-02T00:53:18.564Z,47.95
2023-03-02T00:55:54.490Z,48.75
2023-03-02T00:58:23.252Z,53.80
2023-03-02T01:00:50.504Z,52.42
2023-03-02T01:03:18.079Z,58.78
2023-03-02T01:05:45.459Z,55.30
2023-03-02T01:08:12.935Z,46.40
2023-03-02T01:10:41.744Z,56.88
2023-03-02T01:13:09.145Z,52.95
2023-03-02T01:15:36.548Z,65.38
2023-03-02T01:18:04.054Z,59.17
2023-03-02T01:20:31.212Z,65.88
2023-03-02T01:22:58.951Z,66.85
2023-03-02T01:25:26.251Z,68.45
2023-03-02T01:27:54.187Z,71.55
2023-03-02T01:30:21.387Z,53.08
2023-03-02T01:32:48.823Z,57.30
2023-03-02T01:35:16.959Z,56.30
2023-03-02T01:37:44.449Z,56.20
2023-03-02T01:40:14.243Z,53.15
2023-03-02T01:42:51.253Z,51.95
2023-03-02T01:45:54.427Z,50.95
2023-03-02T01:48:35.291Z,50.08
2023-03-02T01:51:04.336Z,55.40
2023-03-02T01:53:34.158Z,55.63
2023-03-02T01:56:03.974Z,52.10
2023-03-02T01:58:35.486Z,58.60
2023-03-02T02:01:03.241Z,54.95
2023-03-02T02:03:31.170Z,51.10
2023-03-02T02:06:25.666Z,51.80
2023-03-02T02:08:56.177Z,59.97
2023-03-02T02:11:23.897Z,60.45
2023-03-02T02:13:57.033Z,55.00
2023-03-02T02:16:25.905Z,57.83
2023-03-02T02:18:53.617Z,55.92
2023-03-02T02:21:22.777Z,54.35
2023-03-02T02:24:16.296Z,61.67
2023-03-02T02:26:57.713Z,50.42
2023-03-02T02:29:30.465Z,51.47
2023-03-02T02:32:30.364Z,57.63
2023-03-02T02:35:20.024Z,78.18
2023-03-02T02:38:02.414Z,85.18
2023-03-02T02:40:49.466Z,72.68
2023-03-02T02:43:21.113Z,64.13
2023-03-02T02:45:51.799Z,64.82
2023-03-02T02:48:23.183Z,53.42
2023-03-02T02:51:02.998Z,47.83
2023-03-02T02:53:35.270Z,53.72
2023-03-02T02:56:04.476Z,47.88
2023-03-02T02:58:37.497Z,55.30
2023-03-02T03:01:06.139Z,41.38
2023-03-02T03:03:39.367Z,54.03
2023-03-02T03:06:18.165Z,54.45
2023-03-02T03:08:45.768Z,61.72
2023-03-02T03:11:26.725Z,73.90
2023-03-02T03:14:00.400Z,73.45
2023-03-02T03:16:31.010Z,71.65
2023-03-02T03:19:06.974Z,88.80
2023-03-02T03:21:34.725Z,85.90
2023-03-02T03:24:02.971Z,89.30
2023-03-02T03:26:31.081Z,87.68
2023-03-02T03:28:58.833Z,77.18
2023-03-02T03:31:27.819Z,84.18
2023-03-02T03:33:56.527Z,76.03
2023-03-02T03:36:24.432Z,65.25
2023-03-02T03:38:51.552Z,74.07
2023-03-02T03:41:19.048Z,65.93
2023-03-02T03:43:46.389Z,70.45
2023-03-02T03:46:14.401Z,66.85
2023-03-02T03:48:42.932Z,63.20
2023-03-02T03:51:10.875Z,65.75
2023-03-02T03:53:38.597Z,55.13
2023-03-02T03:56:07.570Z,56.38
2023-03-02T03:58:35.453Z,54.03
2023-03-02T04:01:03.865Z,52.50
2023-03-02T04:03:32.030Z,51.33
2023-03-02T04:05:59.523Z,46.40
2023-03-02T04:08:26.944Z,53.08
2023-03-02T04:10:54.548Z,50.05
2023-03-02T04:13:21.732Z,45.15
2023-03-02T04:15:49.267Z,43.58
2023-03-02T04:18:16.543Z,52.83
2023-03-02T04:20:44.169Z,42.78
2023-03-02T04:23:12.870Z,43.47
2023-03-02T04:25:40.554Z,48.38
2023-03-02T04:28:12.606Z,41.78
2023-03-02T04:30:41.665Z,43.53
2023-03-02T04:33:09.261Z,37.63
2023-03-02T04:35:37.217Z,38.67
2023-03-02T04:38:05.013Z,38.25
2023-03-02T04:40:32.557Z,34.85
2023-03-02T04:42:59.686Z,41.70
2023-03-02T04:45:27.158Z,38.53
2023-03-02T04:47:54.262Z,39.97
2023-03-02T04:50:21.857Z,36.63
2023-03-02T04:52:50.298Z,34.78
2023-03-02T04:55:25.295Z,33.47
2023-03-02T04:57:52.746Z,36.75
2023-03-02T05:00:21.154Z,35.35
2023-03-02T05:02:48.447Z,36.00
2023-03-02T05:05:22.066Z,31.77
2023-03-02T05:07:49.332Z,38.58
2023-03-02T05:10:17.996Z,36.78
2023-03-02T05:12:54.696Z,40.97
2023-03-02T05:17:50.003Z,41.13
2023-03-02T05:20:18.456Z,45.53
2023-03-02T05:22:46.129Z,40.17
2023-03-02T05:25:14.496Z,43.03
2023-03-02T05:27:41.604Z,39.88
2023-03-02T05:30:09.546Z,44.63
2023-03-02T05:32:36.857Z,50.38
2023-03-02T05:35:07.038Z,46.10
2023-03-02T05:37:34.292Z,47.25
2023-03-02T05:40:01.812Z,42.00
2023-03-02T05:42:28.924Z,43.45
2023-03-02T05:44:56.350Z,38.00
2023-03-02T05:47:23.470Z,45.38
2023-03-02T05:49:50.911Z,40.92
2023-03-02T05:52:18.134Z,47.13
2023-03-02T05:54:45.711Z,46.00
2023-03-02T05:57:12.878Z,54.75
2023-03-02T05:59:40.329Z,52.85
2023-03-02T06:02:07.654Z,43.85
2023-03-02T06:04:35.186Z,41.25
2023-03-02T06:07:02.378Z,41.58
2023-03-02T06:09:29.788Z,47.10
2023-03-02T06:11:57.811Z,44.00
2023-03-02T06:14:25.258Z,44.75
2023-03-02T06:16:52.779Z,50.60
2023-03-02T06:19:20.358Z,44.00
2023-03-02T06:21:47.544Z,57.08
2023-03-02T06:24:15.061Z,55.47
2023-03-02T06:26:42.313Z,56.60
2023-03-02T06:29:09.829Z,54.88
2023-03-02T06:31:37.090Z,56.72
2023-03-02T06:34:04.554Z,57.78
2023-03-02T06:36:32.168Z,54.28
2023-03-02T06:38:59.973Z,48.80
2023-03-02T06:41:27.232Z,43.53
2023-03-02T06:43:54.858Z,46.67
2023-03-02T06:46:22.114Z,41.88
2023-03-02T06:48:49.558Z,46.42
2023-03-02T06:51:17.937Z,53.53
2023-03-02T06:53:45.384Z,60.42
2023-03-02T06:56:12.564Z,44.25
2023-03-02T06:58:40.075Z,48.40
2023-03-02T07:01:08.016Z,59.53
2023-03-02T07:03:36.315Z,50.10
2023-03-02T07:06:04.246Z,57.97
2023-03-02T07:08:31.758Z,37.53
2023-03-02T07:10:59.009Z,31.83
2023-03-02T07:13:26.721Z,39.03
2023-03-02T07:15:54.992Z,48.75
2023-03-02T07:18:22.478Z,48.80
2023-03-02T07:20:49.629Z,40.22
2023-03-02T07:23:17.224Z,34.53
2023-03-02T07:25:44.383Z,30.40
2023-03-02T07:28:12.082Z,19.60
2023-03-02T07:30:39.373Z,27.38
2023-03-02T07:33:06.890Z,23.95
2023-03-02T07:35:34.140Z,18.02
2023-03-02T07:38:01.833Z,20.35
2023-03-02T07:40:29.057Z,20.33
2023-03-02T07:42:56.536Z,21.45
2023-03-02T07:45:25.101Z,19.38
2023-03-02T07:47:52.742Z,16.10
2023-03-02T07:50:20.016Z,20.15
2023-03-02T07:52:47.504Z,15.32
2023-03-02T07:55:14.783Z,14.32
2023-03-02T07:57:42.138Z,12.98
2023-03-02T08:00:09.967Z,11.43
2023-03-02T08:02:41.757Z,8.80
2023-03-02T08:05:10.183Z,9.18
2023-03-02T08:07:38.102Z,9.27
2023-03-02T08:10:05.833Z,9.52
2023-03-02T08:12:33.255Z,11.77
2023-03-02T08:15:00.811Z,8.82
2023-03-02T08:17:29.129Z,11.30
2023-03-02T08:19:56.315Z,7.82
2023-03-02T08:22:23.762Z,9.23
2023-03-02T08:24:50.912Z,11.23
2023-03-02T08:27:18.449Z,11.80
2023-03-02T08:29:45.632Z,13.60
2023-03-02T08:32:13.484Z,19.42
2023-03-02T08:34:40.817Z,10.68
2023-03-02T08:37:08.387Z,11.02
2023-03-02T08:39:35.677Z,8.77
2023-03-02T08:42:03.221Z,8.63
2023-03-02T08:44:30.390Z,12.05
2023-03-02T08:46:57.756Z,11.40
2023-03-02T08:49:24.958Z,8.32
2023-03-02T08:51:53.829Z,10.30
2023-03-02T08:54:21.672Z,12.07
2023-03-02T08:56:50.220Z,19.58
2023-03-02T08:59:17.484Z,19.63
2023-03-02T09:01:45.125Z,14.18
2023-03-02T09:04:12.416Z,9.05
2023-03-02T09:06:43.051Z,10.05
2023-03-02T09:09:12.064Z,9.48
2023-03-02T09:11:40.047Z,10.60
2023-03-02T09:14:07.165Z,8.75
2023-03-02T09:16:34.591Z,10.88
2023-03-02T09:19:02.032Z,7.13
2023-03-02T09:21:29.701Z,7.03
2023-03-02T09:23:58.463Z,7.97
2023-03-02T09:26:26.820Z,8.75
2023-03-02T09:28:54.374Z,7.97
2023-03-02T09:31:22.066Z,8.32
2023-03-02T09:33:49.345Z,7.55
2023-03-02T09:36:26.986Z,8.55
2023-03-02T09:38:55.163Z,6.43
2023-03-02T09:41:22.660Z,8.68
2023-03-02T09:44:00.689Z,6.68
2023-03-02T09:47:02.992Z,8.43
2023-03-02T09:49:42.315Z,20.63
2023-03-02T09:52:29.866Z,12.95
2023-03-02T09:55:01.477Z,7.20
2023-03-02T09:57:34.838Z,5.72
2023-03-02T10:00:18.667Z,6.18
2023-03-02T10:03:11.355Z,7.65
2023-03-02T10:05:49.498Z,9.02
2023-03-02T10:08:24.302Z,4.47
2023-03-02T10:11:25.833Z,5.75
2023-03-02T10:14:08.473Z,7.97
2023-03-02T10:17:08.236Z,6.90
2023-03-02T10:19:46.642Z,10.07
2023-03-02T10:22:27.208Z,7.28
2023-03-02T10:24:54.606Z,4.88
2023-03-02T10:27:36.854Z,6.05
2023-03-02T10:30:21.873Z,9.48
2023-03-02T10:32:51.622Z,7.63
2023-03-02T10:35:24.126Z,8.80
2023-03-02T10:37:57.316Z,11.27
2023-03-02T10:40:50.302Z,7.50
2023-03-02T10:43:30.858Z,7.55
2023-03-02T10:46:04.567Z,6.97
2023-03-02T10:48:31.842Z,7.65
2023-03-02T10:51:00.689Z,9.43
2023-03-02T10:53:29.132Z,6.75
2023-03-02T10:55:56.824Z,8.45
2023-03-02T10:58:32.707Z,5.38
2023-03-02T11:01:02.975Z,6.18
2023-03-02T11:03:31.002Z,6.47
2023-03-02T11:06:10.164Z,4.97
2023-03-02T11:08:37.676Z,5.70
2023-03-02T11:11:05.216Z,6.13
2023-03-02T11:13:37.454Z,7.05
2023-03-02T11:16:07.386Z,8.50
2023-03-02T11:18:38.478Z,5.72
2023-03-02T11:21:13.678Z,15.65
2023-03-02T11:24:26.590Z,9.38
2023-03-02T11:27:02.989Z,7.30
2023-03-02T11:29:37.553Z,17.80
2023-03-02T11:32:17.576Z,8.65
2023-03-02T11:34:52.057Z,6.60
2023-03-02T11:37:22.369Z,5.65
2023-03-02T11:39:55.407Z,8.18
2023-03-02T11:42:30.672Z,5.43
2023-03-02T11:45:03.293Z,6.20
2023-03-02T11:47:32.918Z,5.70
2023-03-02T11:50:05.424Z,4.57
2023-03-02T11:52:37.751Z,7.32
2023-03-02T11:55:26.078Z,5.15
2023-03-02T12:00:40.145Z,4.70
2023-03-02T12:03:31.109Z,6.80
2023-03-02T12:06:05.179Z,7.70
2023-03-02T12:08:39.302Z,6.13
2023-03-02T12:11:18.655Z,13.90
2023-03-02T12:13:59.654Z,45.75
2023-03-02T12:16:37.733Z,18.48
2023-03-02T12:19:25.281Z,6.22
2023-03-02T12:22:05.769Z,4.65
2023-03-02T12:24:36.240Z,9.95
2023-03-02T12:27:15.408Z,12.30
2023-03-02T12:29:51.820Z,6.03
2023-03-02T12:32:18.960Z,5.33
2023-03-02T12:34:59.196Z,10.40
2023-03-02T12:37:26.355Z,6.28
2023-03-02T12:40:31.323Z,4.70
2023-03-02T12:43:01.292Z,4.30
2023-03-02T12:45:53.489Z,5.43
2023-03-02T12:48:26.735Z,3.83
2023-03-02T12:51:01.912Z,4.40
2023-03-02T12:53:29.860Z,7.20
2023-03-02T12:55:58.041Z,6.30
2023-03-02T12:58:29.006Z,5.18
2023-03-02T13:01:00.358Z,6.97
2023-03-02T13:03:30.021Z,3.13
2023-03-02T13:06:15.872Z,4.07
2023-03-02T13:08:46.154Z,5.22
2023-03-02T13:11:16.411Z,6.20
2023-03-02T13:13:45.171Z,4.20
2023-03-02T13:16:23.957Z,5.15
2023-03-02T13:18:56.939Z,5.05
2023-03-02T13:21:38.765Z,5.15
2023-03-02T13:24:29.460Z,4.25
2023-03-02T13:26:59.628Z,6.68
2023-03-02T13:29:28.401Z,5.72
2023-03-02T13:31:56.208Z,3.10
2023-03-02T13:34:26.058Z,8.60
2023-03-02T13:36:54.197Z,5.25
2023-03-02T13:39:28.699Z,6.43
2023-03-02T13:42:01.557Z,8.40
2023-03-02T13:44:34.139Z,9.07
2023-03-02T13:47:02.884Z,5.55
2023-03-02T13:49:35.856Z,4.15
2023-03-02T13:52:08.457Z,3.50
2023-03-02T13:54:37.606Z,8.25
2023-03-02T13:57:06.276Z,4.82
2023-03-02T13:59:36.913Z,5.07
2023-03-02T14:02:20.247Z,4.95
2023-03-02T14:04:47.509Z,6.22
2023-03-02T14:07:14.954Z,3.88
2023-03-02T14:09:42.087Z,9.63
2023-03-02T14:12:26.898Z,4.10
2023-03-02T14:14:57.331Z,4.95
2023-03-02T14:17:25.931Z,4.47
2023-03-02T14:19:53.718Z,8.60
2023-03-02T14:22:22.780Z,8.93
2023-03-02T14:24:49.966Z,10.13
2023-03-02T14:27:20.602Z,11.63
2023-03-02T14:29:48.253Z,9.98
2023-03-02T14:32:15.989Z,16.63
2023-03-02T14:34:43.222Z,13.25
2023-03-02T14:37:16.775Z,11.02
2023-03-02T14:39:47.136Z,14.80
2023-03-02T14:42:17.243Z,20.35
2023-03-02T14:44:46.429Z,15.75
2023-03-02T14:47:16.648Z,17.17
2023-03-02T14:49:44.139Z,17.08
2023-03-02T14:52:31.458Z,16.67
2023-03-02T14:55:03.009Z,16.25
2023-03-02T14:57:36.228Z,14.57
2023-03-02T15:00:05.090Z,10.13
2023-03-02T15:02:32.648Z,8.48
2023-03-02T15:05:00.000Z,10.80
2023-03-02T15:07:28.471Z,12.25
2023-03-02T15:09:57.739Z,9.45
2023-03-02T15:12:25.855Z,11.40
2023-03-02T15:14:53.134Z,11.13
2023-03-02T15:17:20.703Z,9.88
2023-03-02T15:19:47.940Z,11.32
2023-03-02T15:22:15.840Z,11.18
2023-03-02T15:24:43.134Z,7.30
2023-03-02T15:27:10.714Z,11.88
2023-03-02T15:29:37.934Z,16.20
2023-03-02T15:32:05.655Z,21.83
2023-03-02T15:34:33.268Z,12.57
2023-03-02T15:37:00.754Z,10.02
2023-03-02T15:39:27.921Z,11.10
2023-03-02T15:41:55.512Z,13.85
2023-03-02T15:44:24.503Z,10.48
2023-03-02T15:46:56.994Z,15.95
2023-03-02T15:49:27.388Z,17.63
2023-03-02T15:51:57.762Z,23.73
2023-03-02T15:54:26.235Z,17.85
2023-03-02T15:56:54.087Z,18.90
2023-03-02T15:59:23.706Z,18.52
2023-03-02T16:01:51.661Z,17.65
2023-03-02T16:04:19.315Z,21.02
2023-03-02T16:06:46.853Z,17.52
2023-03-02T16:09:14.125Z,18.77
2023-03-02T16:11:41.636Z,14.20
2023-03-02T16:14:08.843Z,43.85
2023-03-02T16:16:36.822Z,17.40
2023-03-02T16:19:04.126Z,19.90
2023-03-02T16:21:31.566Z,22.20
2023-03-02T16:24:03.941Z,27.95
2023-03-02T16:26:34.481Z,39.15
2023-03-02T16:29:01.970Z,42.75
2023-03-02T16:31:33.122Z,35.90
2023-03-02T16:34:06.178Z,38.15
2023-03-02T16:36:38.442Z,30.98
2023-03-02T16:39:06.655Z,41.55
2023-03-02T16:41:35.164Z,36.90
2023-03-02T16:44:02.466Z,36.95
2023-03-02T16:46:36.320Z,47.70
2023-03-02T16:49:05.013Z,39.92
2023-03-02T16:51:33.138Z,41.17
2023-03-02T16:54:01.072Z,29.52
2023-03-02T16:56:29.013Z,30.10
2023-03-02T16:58:58.239Z,24.50
2023-03-02T17:01:27.188Z,25.60
2023-03-02T17:03:54.328Z,26.80
2023-03-02T17:06:23.099Z,25.73
2023-03-02T17:08:51.351Z,43.83
2023-03-02T17:11:19.624Z,49.63
2023-03-02T17:13:47.011Z,43.65
2023-03-02T17:16:16.287Z,31.05
2023-03-02T17:18:46.935Z,34.50
2023-03-02T17:21:16.456Z,36.03
2023-03-02T17:23:44.089Z,33.88
2023-03-02T17:26:11.652Z,41.97
2023-03-02T17:28:39.338Z,33.88
2023-03-02T17:31:06.944Z,33.55
2023-03-02T17:33:34.499Z,30.52
2023-03-02T17:36:07.424Z,27.70
2023-03-02T17:38:35.200Z,33.25
2023-03-02T17:41:04.425Z,33.00
2023-03-02T17:43:33.874Z,41.53
2023-03-02T17:46:20.409Z,36.75
2023-03-02T17:48:49.942Z,35.17
2023-03-02T17:51:17.600Z,36.50
2023-03-02T17:53:46.430Z,32.47
2023-03-02T17:56:15.311Z,35.95
2023-03-02T17:58:45.243Z,53.13
2023-03-02T18:01:15.918Z,34.47
2023-03-02T18:03:45.227Z,36.17
2023-03-02T18:06:13.479Z,39.38
2023-03-02T18:08:41.019Z,32.95
2023-03-02T18:11:08.539Z,32.67
2023-03-02T18:13:35.871Z,50.17
2023-03-02T18:16:03.847Z,45.83
2023-03-02T18:18:31.110Z,53.38
2023-03-02T18:20:59.064Z,61.88
2023-03-02T18:23:26.269Z,135.13
2023-03-02T18:25:53.937Z,61.35
2023-03-02T18:28:21.260Z,76.35
2023-03-02T18:30:48.980Z,54.80
2023-03-02T18:33:16.181Z,65.80
2023-03-02T18:35:43.675Z,145.45
2023-03-02T18:38:11.038Z,100.78
2023-03-02T18:40:38.599Z,53.33
2023-03-02T18:43:05.764Z,59.78
2023-03-02T18:45:33.512Z,56.38
2023-03-02T18:48:01.168Z,49.20
2023-03-02T18:50:29.940Z,58.22
2023-03-02T18:52:57.110Z,60.70
2023-03-02T18:55:25.641Z,53.72
2023-03-02T18:57:54.072Z,73.43
2023-03-02T19:00:27.706Z,58.67
2023-03-02T19:02:56.493Z,49.53
2023-03-02T19:05:26.909Z,45.22
2023-03-02T19:07:54.950Z,45.75
2023-03-02T19:10:22.389Z,46.60
2023-03-02T19:12:50.191Z,50.35
2023-03-02T19:15:17.908Z,46.45
2023-03-02T19:17:45.257Z,49.17
2023-03-02T19:20:16.940Z,56.20
2023-03-02T19:22:44.611Z,44.05
2023-03-02T19:25:12.922Z,53.03
2023-03-02T19:27:40.548Z,52.75
2023-03-02T19:30:14.233Z,60.05
2023-03-02T19:32:41.476Z,59.35
2023-03-02T19:35:09.331Z,39.00
2023-03-02T19:37:36.492Z,41.08
2023-03-02T19:40:04.191Z,49.75
2023-03-02T19:42:34.800Z,49.72
2023-03-02T19:45:03.311Z,43.75
2023-03-02T19:47:32.164Z,55.83
2023-03-02T19:49:59.617Z,65.82
2023-03-02T19:52:26.876Z,55.67
2023-03-02T19:54:54.347Z,59.20
2023-03-02T19:57:21.600Z,55.05
2023-03-02T19:59:49.040Z,70.63
2023-03-02T20:02:16.736Z,64.03
2023-03-02T20:04:46.781Z,56.47
2023-03-02T20:07:14.276Z,61.60
2023-03-02T20:09:42.596Z,80.55
2023-03-02T20:12:10.951Z,73.05
2023-03-02T20:14:38.677Z,70.68
2023-03-02T20:17:06.289Z,58.05
2023-03-02T20:19:33.735Z,58.70
2023-03-02T20:22:03.802Z,87.13
2023-03-02T20:24:31.365Z,152.32
2023-03-02T20:26:58.795Z,250.23
2023-03-02T20:29:26.925Z,160.73
2023-03-02T20:31:54.222Z,102.72
2023-03-02T20:34:21.927Z,79.93
2023-03-02T20:36:50.115Z,162.00
2023-03-02T20:39:20.115Z,116.75
2023-03-02T20:41:47.367Z,128.73
2023-03-02T20:44:15.039Z,104.18
2023-03-02T20:46:46.138Z,120.05
2023-03-02T20:49:15.421Z,112.07
2023-03-02T20:51:49.284Z,94.05
2023-03-02T20:54:17.276Z,135.98
2023-03-02T20:56:44.693Z,92.82
2023-03-02T20:59:14.308Z,97.00
2023-03-02T21:01:41.893Z,155.88
2023-03-02T21:04:09.402Z,124.95
2023-03-02T21:06:37.212Z,191.50
2023-03-02T21:09:08.406Z,119.18
2023-03-02T21:11:36.887Z,132.85
2023-03-02T21:14:04.963Z,117.38
2023-03-02T21:16:37.054Z,182.27
2023-03-02T21:19:12.373Z,148.48
2023-03-02T21:21:42.244Z,136.45
2023-03-02T21:24:18.637Z,155.23
2023-03-02T21:26:47.625Z,106.78
2023-03-02T21:29:16.820Z,139.98
2023-03-02T21:31:44.697Z,126.70
2023-03-02T21:34:13.004Z,85.70
2023-03-02T21:36:40.706Z,80.00
2023-03-02T21:39:08.732Z,74.95
2023-03-02T21:41:36.393Z,64.07
2023-03-02T21:44:05.672Z,54.03
2023-03-02T21:46:35.549Z,60.47
2023-03-02T21:49:03.876Z,49.35
2023-03-02T21:51:31.681Z,49.45
2023-03-02T21:53:59.174Z,46.38
2023-03-02T21:56:26.719Z,47.10
2023-03-02T21:58:56.442Z,56.95
2023-03-02T22:01:25.954Z,56.15
2023-03-02T22:03:54.171Z,57.53
2023-03-02T22:06:27.060Z,64.10
2023-03-02T22:08:55.703Z,58.22
2023-03-02T22:11:29.006Z,62.70
2023-03-02T22:14:03.011Z,56.47
2023-03-02T22:16:39.221Z,99.15
2023-03-02T22:19:26.323Z,97.03
2023-03-02T22:22:01.324Z,82.20
2023-03-02T22:24:31.629Z,85.10
2023-03-02T22:27:00.439Z,96.78
2023-03-02T22:29:40.337Z,92.03
2023-03-02T22:32:20.795Z,91.15
2023-03-02T22:34:51.500Z,95.93
2023-03-02T22:37:27.664Z,87.55
2023-03-02T22:39:57.711Z,85.45
2023-03-02T22:42:27.179Z,82.80
2023-03-02T22:45:14.727Z,87.43
2023-03-02T22:47:44.378Z,78.93
2023-03-02T22:50:32.212Z,82.10
2023-03-02T22:55:38.640Z,74.13
2023-03-02T22:58:39.564Z,78.65
2023-03-02T23:01:21.155Z,88.07
2023-03-02T23:03:54.736Z,73.57
2023-03-02T23:06:22.136Z,63.95
2023-03-02T23:08:50.116Z,63.25
2023-03-02T23:11:20.668Z,60.03
2023-03-02T23:13:49.867Z,73.20
2023-03-02T23:16:29.315Z,59.28
2023-03-02T23:18:59.404Z,68.20
2023-03-02T23:21:41.580Z,66.45
2023-03-02T23:24:09.169Z,67.55
2023-03-02T23:26:36.897Z,78.90
2023-03-02T23:29:04.392Z,92.05
2023-03-02T23:31:32.200Z,85.25
2023-03-02T23:33:59.354Z,96.82
2023-03-02T23:36:27.822Z,91.20
2023-03-02T23:38:55.088Z,87.38
2023-03-02T23:41:22.521Z,81.18
2023-03-02T23:43:49.631Z,75.95
2023-03-02T23:46:17.396Z,72.43
2023-03-02T23:48:44.729Z,76.40
2023-03-02T23:51:12.252Z,70.43
2023-03-02T23:53:40.112Z,74.28
2023-03-02T23:56:07.979Z,61.50
2023-03-02T23:58:35.375Z,65.03
